Strona główna
METAR-TAF:

METAR-TAF

Lotnisko :

Port lotniczy Blackpool

Blackpool, Anglia

Szerokość geograficzna: 53-46N, Długość geograficzna: 003-02W, wysokość: 10 m

Aktualna obserwacja pogody

Raport powstał 4 godziny i 39 minut temu, godzina 20:50 UTC
Wiatr 12 kt od zachodnio-północny zachód
Temperatura 7°C
Wilgotność 87%
Ciśnienie 1044 hPa
Widzialność 10 km lub więcej
Mało chmury na wysokości 2600 ft

METAR: EGNH 202050Z 29012KT 9999 FEW026 07/05 Q1044

czas: 01:29 (01:29 UTC)

Prognoza

Raport powstał 8 godziny i 22 minut temu, godzina 17:07 UTC
Prognoza ważna od 20 godzina 18 UTC do 20 godzina 21 UTC
Wiatr 9 kt od zachód
Widzialność 10 km lub więcej
Mało chmury na wysokości 3000 ft

TAF: EGNH 201707Z 2018/2021 26009KT 9999 FEW030

Obserwacja i prognoza pogody dla ponad 4000 lotnisk (raport METAR i TAF).

Dostępne stacje oznaczono żółtymi i czerwonymi punktami na mapie.

Najedź kursorem aby zobaczyć nazwę stacji.

Kliknij aby zobaczyć obserwacje i prognozy pogody.

Aby zmienić mapę: kliknij na zielony przycisk z czarnym krzyżykiem, aby powiększyć; na zielony przycisk z myślnikiem, aby pomniejszyć; na zielone strzałki, aby przejść do map sąsiednich.


METAR-TAF: